createdAt,value
2022-09-26T00:01:33.617Z,10.80
2022-09-26T00:06:35.305Z,10.70
2022-09-26T00:11:37.061Z,10.60
2022-09-26T00:16:38.846Z,10.60
2022-09-26T00:21:40.549Z,10.50
2022-09-26T00:26:42.125Z,10.50
2022-09-26T00:31:43.738Z,10.40
2022-09-26T00:36:45.483Z,10.40
2022-09-26T00:41:47.030Z,10.30
2022-09-26T00:46:48.575Z,10.10
2022-09-26T00:51:50.151Z,10.10
2022-09-26T00:56:51.672Z,10.10
2022-09-26T01:01:53.482Z,10.00
2022-09-26T01:06:55.419Z,10.00
2022-09-26T01:11:57.146Z,10.00
2022-09-26T01:16:58.958Z,9.90
2022-09-26T01:22:00.580Z,9.80
2022-09-26T01:27:02.403Z,9.70
2022-09-26T01:32:03.946Z,9.80
2022-09-26T01:37:05.509Z,9.80
2022-09-26T01:42:07.066Z,9.70
2022-09-26T01:47:08.607Z,9.70
2022-09-26T01:52:10.265Z,9.80
2022-09-26T01:57:11.788Z,9.70
2022-09-26T02:02:13.568Z,9.70
2022-09-26T02:07:15.188Z,9.70
2022-09-26T02:12:16.949Z,9.60
2022-09-26T02:17:18.708Z,9.50
2022-09-26T02:22:20.238Z,9.50
2022-09-26T02:27:21.893Z,9.50
2022-09-26T02:32:23.642Z,9.40
2022-09-26T02:37:25.389Z,9.30
2022-09-26T02:42:27.090Z,9.30
2022-09-26T02:47:28.907Z,9.30
2022-09-26T02:52:30.665Z,9.30
2022-09-26T02:57:32.434Z,9.20
2022-09-26T03:02:34.166Z,9.10
2022-09-26T03:07:35.926Z,9.10
2022-09-26T03:12:37.697Z,9.10
2022-09-26T03:17:39.437Z,9.10
2022-09-26T03:22:40.963Z,9.10
2022-09-26T03:27:42.624Z,8.90
2022-09-26T03:32:44.130Z,8.80
2022-09-26T03:37:45.812Z,8.70
2022-09-26T03:42:47.573Z,8.60
2022-09-26T03:47:49.121Z,8.60
2022-09-26T03:52:50.786Z,8.50
2022-09-26T03:57:52.532Z,8.50
2022-09-26T04:02:54.064Z,8.40
2022-09-26T04:07:55.737Z,8.40
2022-09-26T04:12:57.469Z,8.40
2022-09-26T04:17:58.991Z,8.30
2022-09-26T04:23:00.665Z,8.30
2022-09-26T04:28:02.433Z,8.30
2022-09-26T04:33:04.173Z,8.40
2022-09-26T04:38:05.944Z,8.40
2022-09-26T04:43:07.675Z,8.40
2022-09-26T04:48:09.435Z,8.40
2022-09-26T04:53:11.209Z,8.40
2022-09-26T04:58:12.953Z,8.50
2022-09-26T05:03:14.733Z,8.50
2022-09-26T05:08:16.379Z,8.60
2022-09-26T05:13:18.205Z,8.60
2022-09-26T05:18:19.746Z,8.70
2022-09-26T05:23:21.420Z,9.10
2022-09-26T05:28:23.174Z,9.10
2022-09-26T05:33:24.914Z,9.10
2022-09-26T05:38:26.679Z,9.20
2022-09-26T05:43:28.428Z,9.30
2022-09-26T05:48:30.202Z,9.30
2022-09-26T05:53:31.731Z,9.40
2022-09-26T05:58:33.378Z,9.50
2022-09-26T06:03:35.153Z,9.50
2022-09-26T06:08:36.876Z,9.60
2022-09-26T06:13:38.393Z,9.70
2022-09-26T06:18:40.097Z,9.80
2022-09-26T06:23:41.827Z,9.80
2022-09-26T06:28:43.595Z,9.90
2022-09-26T06:33:45.339Z,9.90
2022-09-26T06:38:47.196Z,10.00
2022-09-26T06:43:48.874Z,10.10
2022-09-26T06:48:50.616Z,10.10
2022-09-26T06:53:52.362Z,10.20
2022-09-26T06:58:54.140Z,10.20
2022-09-26T07:03:55.760Z,10.30
2022-09-26T07:09:02.637Z,10.30
2022-09-26T07:14:05.016Z,10.30
2022-09-26T07:19:06.564Z,10.40
2022-09-26T07:24:08.233Z,10.50
2022-09-26T07:29:09.958Z,10.60
2022-09-26T07:34:14.648Z,10.70
2022-09-26T07:39:19.782Z,10.80
2022-09-26T07:49:43.333Z,10.90
2022-09-26T07:54:44.956Z,11.00
2022-09-26T07:59:46.491Z,11.00
2022-09-26T08:04:48.252Z,11.10
2022-09-26T08:09:50.025Z,11.10
2022-09-26T08:14:51.772Z,11.20
2022-09-26T08:19:53.520Z,11.30
2022-09-26T08:24:55.276Z,11.40
2022-09-26T08:29:57.009Z,11.60
2022-09-26T08:34:58.785Z,11.80
2022-09-26T08:40:00.546Z,12.00
2022-09-26T08:45:02.279Z,12.20
2022-09-26T08:50:04.058Z,12.30
2022-09-26T08:55:05.783Z,12.50
2022-09-26T09:00:07.323Z,12.70
2022-09-26T09:05:08.981Z,12.90
2022-09-26T09:10:10.750Z,13.20
2022-09-26T09:15:25.295Z,13.60
2022-09-26T09:20:27.761Z,13.90
2022-09-26T09:25:29.374Z,14.20
2022-09-26T09:30:30.920Z,14.50
2022-09-26T09:35:32.607Z,14.60
2022-09-26T09:40:34.477Z,14.80
2022-09-26T09:45:36.204Z,14.80
2022-09-26T09:50:37.926Z,14.70
2022-09-26T09:55:39.450Z,14.60
2022-09-26T10:00:41.045Z,14.60
2022-09-26T10:05:42.575Z,14.60
2022-09-26T10:10:44.345Z,14.50
2022-09-26T10:15:45.928Z,14.40
2022-09-26T10:20:47.515Z,14.40
2022-09-26T10:25:49.037Z,14.50
2022-09-26T10:30:50.766Z,14.50
2022-09-26T10:35:52.471Z,14.50
2022-09-26T10:40:54.052Z,14.20
2022-09-26T10:45:55.700Z,13.90
2022-09-26T10:50:57.443Z,13.80
2022-09-26T10:55:59.176Z,13.70
2022-09-26T11:01:00.924Z,13.60
2022-09-26T11:06:02.449Z,13.50
2022-09-26T11:11:04.125Z,13.50
2022-09-26T11:16:05.940Z,13.60
2022-09-26T11:21:18.396Z,13.60
2022-09-26T11:26:29.126Z,13.60
2022-09-26T11:31:30.728Z,13.50
2022-09-26T11:36:32.638Z,13.40
2022-09-26T11:41:34.402Z,13.40
2022-09-26T11:46:36.044Z,13.30
2022-09-26T11:51:37.689Z,13.50
2022-09-26T11:56:39.242Z,13.60
2022-09-26T12:01:40.827Z,13.80
2022-09-26T12:06:42.426Z,14.00
2022-09-26T12:11:43.965Z,14.10
2022-09-26T12:16:45.717Z,14.30
2022-09-26T12:21:47.246Z,14.50
2022-09-26T12:26:49.467Z,14.60
2022-09-26T12:31:51.059Z,14.70
2022-09-26T12:36:52.755Z,14.70
2022-09-26T12:41:54.266Z,14.70
2022-09-26T12:46:55.997Z,14.90
2022-09-26T12:51:57.707Z,15.00
2022-09-26T12:56:59.244Z,15.10
2022-09-26T13:02:00.990Z,15.30
2022-09-26T13:07:18.457Z,15.30
2022-09-26T13:12:21.327Z,15.30
2022-09-26T13:17:23.097Z,15.10
2022-09-26T13:22:24.827Z,14.90
2022-09-26T13:27:26.581Z,15.00
2022-09-26T13:32:28.469Z,15.50
2022-09-26T13:37:30.113Z,16.00
2022-09-26T13:42:31.870Z,16.10
2022-09-26T13:47:33.597Z,16.00
2022-09-26T13:52:35.459Z,15.90
2022-09-26T13:57:37.121Z,16.00
2022-09-26T14:02:38.707Z,16.10
2022-09-26T14:07:40.648Z,16.20
2022-09-26T14:12:42.259Z,16.30
2022-09-26T14:17:43.839Z,16.30
2022-09-26T14:22:46.247Z,16.30
2022-09-26T14:27:47.980Z,16.20
2022-09-26T14:32:49.710Z,16.20
2022-09-26T14:37:51.255Z,16.20
2022-09-26T14:42:52.883Z,16.10
2022-09-26T14:47:54.398Z,16.10
2022-09-26T14:52:56.103Z,16.00
2022-09-26T14:57:57.859Z,15.80
2022-09-26T15:03:01.360Z,15.70
2022-09-26T15:08:03.224Z,15.50
2022-09-26T15:13:04.754Z,15.40
2022-09-26T15:18:06.450Z,15.40
2022-09-26T15:23:08.192Z,15.30
2022-09-26T15:28:09.967Z,15.10
2022-09-26T15:33:16.139Z,15.00
2022-09-26T15:38:18.173Z,14.80
2022-09-26T15:43:19.900Z,14.60
2022-09-26T15:48:21.421Z,14.50
2022-09-26T15:53:22.954Z,14.50
2022-09-26T15:58:24.557Z,14.40
2022-09-26T16:03:26.348Z,14.40
2022-09-26T16:08:28.043Z,14.20
2022-09-26T16:13:29.687Z,14.00
2022-09-26T16:18:31.260Z,13.80
2022-09-26T16:23:32.983Z,13.60
2022-09-26T16:28:34.760Z,13.40
2022-09-26T16:33:36.350Z,13.20
2022-09-26T16:38:37.964Z,13.00
2022-09-26T16:43:39.772Z,12.80
2022-09-26T16:48:41.516Z,12.60
2022-09-26T16:53:43.103Z,12.40
2022-09-26T16:58:44.675Z,12.20
2022-09-26T17:03:46.491Z,11.90
2022-09-26T17:08:48.135Z,11.80
2022-09-26T17:13:49.944Z,11.70
2022-09-26T17:18:51.709Z,11.60
2022-09-26T17:23:53.511Z,11.60
2022-09-26T17:28:55.149Z,11.50
2022-09-26T17:33:56.773Z,11.40
2022-09-26T17:38:58.456Z,11.30
2022-09-26T17:44:00.116Z,11.20
2022-09-26T17:49:01.873Z,11.00
2022-09-26T17:54:03.501Z,10.90
2022-09-26T17:59:05.183Z,10.80
2022-09-26T18:04:06.990Z,10.70
2022-09-26T18:09:08.671Z,10.60
2022-09-26T18:14:10.428Z,10.50
2022-09-26T18:19:12.229Z,10.40
2022-09-26T18:24:18.597Z,10.30
2022-09-26T18:29:21.363Z,10.20
2022-09-26T18:34:23.061Z,10.20
2022-09-26T18:39:24.836Z,10.20
2022-09-26T18:44:26.574Z,10.10
2022-09-26T18:49:28.242Z,10.00
2022-09-26T18:54:30.068Z,9.90
2022-09-26T18:59:31.830Z,9.90
2022-09-26T19:04:33.890Z,9.90
2022-09-26T19:09:35.674Z,9.90
2022-09-26T19:14:37.435Z,9.80
2022-09-26T19:19:39.172Z,9.80
2022-09-26T19:24:40.917Z,9.80
2022-09-26T19:29:42.837Z,9.70
2022-09-26T19:34:44.479Z,9.70
2022-09-26T19:39:46.189Z,9.70
2022-09-26T19:44:47.965Z,9.60
2022-09-26T19:49:49.683Z,9.60
2022-09-26T19:54:51.464Z,9.60
2022-09-26T19:59:53.203Z,9.50
2022-09-26T20:04:54.930Z,9.50
2022-09-26T20:09:56.649Z,9.40
2022-09-26T20:14:58.392Z,9.40
2022-09-26T20:20:00.179Z,9.40
2022-09-26T20:25:01.907Z,9.30
2022-09-26T20:30:03.648Z,9.20
2022-09-26T20:35:05.435Z,9.20
2022-09-26T20:40:07.202Z,9.20
2022-09-26T20:45:08.907Z,9.10
2022-09-26T20:50:10.671Z,9.10
2022-09-26T20:55:12.422Z,9.10
2022-09-26T21:00:14.197Z,9.20
2022-09-26T21:05:15.922Z,9.20
2022-09-26T21:10:17.706Z,9.20
2022-09-26T21:15:19.448Z,9.20
2022-09-26T21:20:21.218Z,9.20
2022-09-26T21:25:22.749Z,9.20
2022-09-26T21:30:24.284Z,9.30
2022-09-26T21:35:25.856Z,9.30
2022-09-26T21:40:27.508Z,9.30
2022-09-26T21:45:29.345Z,9.40
2022-09-26T21:50:31.101Z,9.40
2022-09-26T21:55:32.890Z,9.40
2022-09-26T22:00:34.608Z,9.50
2022-09-26T22:05:36.343Z,9.60
2022-09-26T22:10:37.874Z,9.70
2022-09-26T22:15:39.536Z,9.70
2022-09-26T22:20:41.334Z,9.70
2022-09-26T22:25:43.167Z,9.70
2022-09-26T22:30:44.834Z,9.70
2022-09-26T22:35:46.562Z,9.70
2022-09-26T22:40:48.398Z,9.70
2022-09-26T22:45:50.136Z,9.70
2022-09-26T22:50:51.821Z,9.60
2022-09-26T22:55:53.583Z,9.60
2022-09-26T23:00:55.368Z,9.60
2022-09-26T23:05:56.938Z,9.60
2022-09-26T23:10:58.526Z,9.60
2022-09-26T23:16:00.331Z,9.60
2022-09-26T23:21:02.077Z,9.60
2022-09-26T23:26:03.665Z,9.60
2022-09-26T23:31:05.258Z,9.70
2022-09-26T23:36:07.009Z,9.60
2022-09-26T23:41:08.748Z,9.70
2022-09-26T23:46:10.564Z,9.70
2022-09-26T23:51:12.288Z,9.70
2022-09-26T23:56:13.969Z,9.70
